sensor_id;sensor_type;location;lat;lon;timestamp;temperature;humidity
35635;DHT22;21757;43.610;1.440;2023-07-31T00:00:28;20.90;99.90
35635;DHT22;21757;43.610;1.440;2023-07-31T00:02:54;20.90;99.90
35635;DHT22;21757;43.610;1.440;2023-07-31T00:05:20;20.80;99.90
35635;DHT22;21757;43.610;1.440;2023-07-31T00:07:46;20.90;99.90
35635;DHT22;21757;43.610;1.440;2023-07-31T00:10:12;20.90;99.90
35635;DHT22;21757;43.610;1.440;2023-07-31T00:12:43;20.80;99.90
35635;DHT22;21757;43.610;1.440;2023-07-31T00:15:09;20.80;99.90
35635;DHT22;21757;43.610;1.440;2023-07-31T00:17:36;20.70;99.90
35635;DHT22;21757;43.610;1.440;2023-07-31T00:20:02;20.70;99.90
35635;DHT22;21757;43.610;1.440;2023-07-31T00:22:27;20.80;99.90
35635;DHT22;21757;43.610;1.440;2023-07-31T00:24:53;20.70;99.90
35635;DHT22;21757;43.610;1.440;2023-07-31T00:27:19;20.60;99.90
35635;DHT22;21757;43.610;1.440;2023-07-31T00:29:44;20.60;99.90
35635;DHT22;21757;43.610;1.440;2023-07-31T00:32:10;20.50;99.90
35635;DHT22;21757;43.610;1.440;2023-07-31T00:34:36;20.60;99.90
35635;DHT22;21757;43.610;1.440;2023-07-31T00:37:02;20.50;99.90
35635;DHT22;21757;43.610;1.440;2023-07-31T00:39:29;20.40;99.90
35635;DHT22;21757;43.610;1.440;2023-07-31T00:41:55;20.40;99.90
35635;DHT22;21757;43.610;1.440;2023-07-31T00:44:20;20.40;99.90
35635;DHT22;21757;43.610;1.440;2023-07-31T00:46:46;20.40;99.90
35635;DHT22;21757;43.610;1.440;2023-07-31T00:49:12;20.40;99.90
35635;DHT22;21757;43.610;1.440;2023-07-31T00:51:38;20.30;99.90
35635;DHT22;21757;43.610;1.440;2023-07-31T00:54:04;20.40;99.90
35635;DHT22;21757;43.610;1.440;2023-07-31T00:56:29;20.40;99.90
35635;DHT22;21757;43.610;1.440;2023-07-31T00:58:55;20.30;99.90
35635;DHT22;21757;43.610;1.440;2023-07-31T01:01:21;20.30;99.90
35635;DHT22;21757;43.610;1.440;2023-07-31T01:03:48;20.30;99.90
35635;DHT22;21757;43.610;1.440;2023-07-31T01:12:01;20.30;99.90
35635;DHT22;21757;43.610;1.440;2023-07-31T01:14:27;20.20;99.90
35635;DHT22;21757;43.610;1.440;2023-07-31T01:16:53;20.20;99.90
35635;DHT22;21757;43.610;1.440;2023-07-31T01:19:23;20.20;99.90
35635;DHT22;21757;43.610;1.440;2023-07-31T01:28:02;20.00;99.90
35635;DHT22;21757;43.610;1.440;2023-07-31T01:30:33;20.00;99.90
35635;DHT22;21757;43.610;1.440;2023-07-31T01:33:01;20.00;99.90
35635;DHT22;21757;43.610;1.440;2023-07-31T01:35:33;19.90;99.90
35635;DHT22;21757;43.610;1.440;2023-07-31T01:37:59;19.90;99.90
35635;DHT22;21757;43.610;1.440;2023-07-31T01:40:24;19.80;99.90
35635;DHT22;21757;43.610;1.440;2023-07-31T01:42:50;19.80;99.90
35635;DHT22;21757;43.610;1.440;2023-07-31T01:45:16;19.70;99.90
35635;DHT22;21757;43.610;1.440;2023-07-31T01:47:41;19.70;99.90
35635;DHT22;21757;43.610;1.440;2023-07-31T01:50:07;19.60;99.90
35635;DHT22;21757;43.610;1.440;2023-07-31T01:52:33;19.60;99.90
35635;DHT22;21757;43.610;1.440;2023-07-31T01:54:59;19.60;99.90
35635;DHT22;21757;43.610;1.440;2023-07-31T01:57:24;19.60;99.90
35635;DHT22;21757;43.610;1.440;2023-07-31T01:59:50;19.60;99.90
35635;DHT22;21757;43.610;1.440;2023-07-31T02:02:16;19.60;99.90
35635;DHT22;21757;43.610;1.440;2023-07-31T02:04:42;19.60;99.90
35635;DHT22;21757;43.610;1.440;2023-07-31T02:07:07;19.60;99.90
35635;DHT22;21757;43.610;1.440;2023-07-31T02:09:33;19.50;99.90
35635;DHT22;21757;43.610;1.440;2023-07-31T02:11:59;19.50;99.90
35635;DHT22;21757;43.610;1.440;2023-07-31T02:14:24;19.50;99.90
35635;DHT22;21757;43.610;1.440;2023-07-31T02:16:50;19.50;99.90
35635;DHT22;21757;43.610;1.440;2023-07-31T02:19:16;19.50;99.90
35635;DHT22;21757;43.610;1.440;2023-07-31T02:21:42;19.40;99.90
35635;DHT22;21757;43.610;1.440;2023-07-31T02:24:07;19.40;99.90
35635;DHT22;21757;43.610;1.440;2023-07-31T02:26:33;19.40;99.90
35635;DHT22;21757;43.610;1.440;2023-07-31T02:28:58;19.40;99.90
35635;DHT22;21757;43.610;1.440;2023-07-31T02:31:24;19.40;99.90
35635;DHT22;21757;43.610;1.440;2023-07-31T02:33:50;19.50;99.90
35635;DHT22;21757;43.610;1.440;2023-07-31T02:36:15;19.40;99.90
35635;DHT22;21757;43.610;1.440;2023-07-31T02:38:41;19.40;99.90
35635;DHT22;21757;43.610;1.440;2023-07-31T02:41:07;19.30;99.90
35635;DHT22;21757;43.610;1.440;2023-07-31T02:43:32;19.40;99.90
35635;DHT22;21757;43.610;1.440;2023-07-31T02:45:59;19.30;99.90
35635;DHT22;21757;43.610;1.440;2023-07-31T02:48:25;19.30;99.90
35635;DHT22;21757;43.610;1.440;2023-07-31T02:50:51;19.20;99.90
35635;DHT22;21757;43.610;1.440;2023-07-31T02:53:16;19.30;99.90
35635;DHT22;21757;43.610;1.440;2023-07-31T02:55:42;19.20;99.90
35635;DHT22;21757;43.610;1.440;2023-07-31T02:58:07;19.20;99.90
35635;DHT22;21757;43.610;1.440;2023-07-31T03:00:33;19.10;99.90
35635;DHT22;21757;43.610;1.440;2023-07-31T03:02:59;19.20;99.90
35635;DHT22;21757;43.610;1.440;2023-07-31T03:05:24;19.20;99.90
35635;DHT22;21757;43.610;1.440;2023-07-31T03:07:50;19.10;99.90
35635;DHT22;21757;43.610;1.440;2023-07-31T03:10:16;19.10;99.90
35635;DHT22;21757;43.610;1.440;2023-07-31T03:12:41;19.10;99.90
35635;DHT22;21757;43.610;1.440;2023-07-31T03:15:07;19.20;99.90
35635;DHT22;21757;43.610;1.440;2023-07-31T03:17:33;19.10;99.90
35635;DHT22;21757;43.610;1.440;2023-07-31T03:19:59;19.10;99.90
35635;DHT22;21757;43.610;1.440;2023-07-31T03:22:24;19.10;99.90
35635;DHT22;21757;43.610;1.440;2023-07-31T03:24:50;19.10;99.90
35635;DHT22;21757;43.610;1.440;2023-07-31T03:27:16;19.10;99.90
35635;DHT22;21757;43.610;1.440;2023-07-31T03:29:41;19.00;99.90
35635;DHT22;21757;43.610;1.440;2023-07-31T03:32:07;19.10;99.90
35635;DHT22;21757;43.610;1.440;2023-07-31T03:34:33;19.10;99.90
35635;DHT22;21757;43.610;1.440;2023-07-31T03:36:59;19.10;99.90
35635;DHT22;21757;43.610;1.440;2023-07-31T03:39:25;19.10;99.90
35635;DHT22;21757;43.610;1.440;2023-07-31T03:41:50;19.10;99.90
35635;DHT22;21757;43.610;1.440;2023-07-31T03:44:16;19.10;99.90
35635;DHT22;21757;43.610;1.440;2023-07-31T03:46:42;19.00;99.90
35635;DHT22;21757;43.610;1.440;2023-07-31T03:49:08;19.00;99.90
35635;DHT22;21757;43.610;1.440;2023-07-31T03:51:33;19.00;99.90
35635;DHT22;21757;43.610;1.440;2023-07-31T03:53:59;19.00;99.90
35635;DHT22;21757;43.610;1.440;2023-07-31T03:56:25;19.00;99.90
35635;DHT22;21757;43.610;1.440;2023-07-31T03:58:51;19.10;99.90
35635;DHT22;21757;43.610;1.440;2023-07-31T04:01:16;19.10;99.90
35635;DHT22;21757;43.610;1.440;2023-07-31T04:03:43;19.10;99.90
35635;DHT22;21757;43.610;1.440;2023-07-31T04:06:08;19.10;99.90
35635;DHT22;21757;43.610;1.440;2023-07-31T04:08:35;19.00;99.90
35635;DHT22;21757;43.610;1.440;2023-07-31T04:11:00;18.90;99.90
35635;DHT22;21757;43.610;1.440;2023-07-31T04:13:26;19.00;99.90
35635;DHT22;21757;43.610;1.440;2023-07-31T04:15:54;19.00;99.90
35635;DHT22;21757;43.610;1.440;2023-07-31T04:18:20;18.90;99.90
35635;DHT22;21757;43.610;1.440;2023-07-31T04:20:45;18.90;99.90
35635;DHT22;21757;43.610;1.440;2023-07-31T04:23:11;18.90;99.90
35635;DHT22;21757;43.610;1.440;2023-07-31T04:25:37;18.70;99.90
35635;DHT22;21757;43.610;1.440;2023-07-31T04:28:03;18.70;99.90
35635;DHT22;21757;43.610;1.440;2023-07-31T04:30:29;18.70;99.90
35635;DHT22;21757;43.610;1.440;2023-07-31T04:32:54;18.70;99.90
35635;DHT22;21757;43.610;1.440;2023-07-31T04:35:20;18.70;99.90
35635;DHT22;21757;43.610;1.440;2023-07-31T04:37:46;18.60;99.90
35635;DHT22;21757;43.610;1.440;2023-07-31T04:40:15;18.60;99.90
35635;DHT22;21757;43.610;1.440;2023-07-31T04:42:40;18.50;99.90
35635;DHT22;21757;43.610;1.440;2023-07-31T04:45:07;18.50;99.90
35635;DHT22;21757;43.610;1.440;2023-07-31T04:47:32;18.40;99.90
35635;DHT22;21757;43.610;1.440;2023-07-31T04:49:58;18.30;99.90
35635;DHT22;21757;43.610;1.440;2023-07-31T04:52:24;18.30;99.90
35635;DHT22;21757;43.610;1.440;2023-07-31T04:54:49;18.20;99.90
35635;DHT22;21757;43.610;1.440;2023-07-31T04:57:15;18.30;99.90
35635;DHT22;21757;43.610;1.440;2023-07-31T04:59:40;18.30;99.90
35635;DHT22;21757;43.610;1.440;2023-07-31T05:02:08;18.30;99.90
35635;DHT22;21757;43.610;1.440;2023-07-31T05:04:34;18.30;99.90
35635;DHT22;21757;43.610;1.440;2023-07-31T05:06:59;18.40;99.90
35635;DHT22;21757;43.610;1.440;2023-07-31T05:09:25;18.40;99.90
35635;DHT22;21757;43.610;1.440;2023-07-31T05:11:51;18.30;99.90
35635;DHT22;21757;43.610;1.440;2023-07-31T05:14:16;18.40;99.90
35635;DHT22;21757;43.610;1.440;2023-07-31T05:16:42;18.40;99.90
35635;DHT22;21757;43.610;1.440;2023-07-31T05:19:07;18.30;99.90
35635;DHT22;21757;43.610;1.440;2023-07-31T05:21:33;18.30;99.90
35635;DHT22;21757;43.610;1.440;2023-07-31T05:23:59;18.40;99.90
35635;DHT22;21757;43.610;1.440;2023-07-31T05:26:24;18.40;99.90
35635;DHT22;21757;43.610;1.440;2023-07-31T05:28:50;18.40;99.90
35635;DHT22;21757;43.610;1.440;2023-07-31T05:31:16;18.50;99.90
35635;DHT22;21757;43.610;1.440;2023-07-31T05:33:41;18.50;99.90
35635;DHT22;21757;43.610;1.440;2023-07-31T05:36:07;18.50;99.90
35635;DHT22;21757;43.610;1.440;2023-07-31T05:38:32;18.70;99.90
35635;DHT22;21757;43.610;1.440;2023-07-31T05:40:58;18.70;99.90
35635;DHT22;21757;43.610;1.440;2023-07-31T05:43:24;18.90;99.90
35635;DHT22;21757;43.610;1.440;2023-07-31T05:45:50;18.90;99.90
35635;DHT22;21757;43.610;1.440;2023-07-31T05:48:16;18.80;99.90
35635;DHT22;21757;43.610;1.440;2023-07-31T05:50:43;18.80;99.90
35635;DHT22;21757;43.610;1.440;2023-07-31T05:53:09;18.90;99.90
35635;DHT22;21757;43.610;1.440;2023-07-31T05:55:35;19.00;99.90
35635;DHT22;21757;43.610;1.440;2023-07-31T05:58:01;19.10;99.90
35635;DHT22;21757;43.610;1.440;2023-07-31T06:00:27;19.00;99.90
35635;DHT22;21757;43.610;1.440;2023-07-31T06:02:53;19.20;99.90
35635;DHT22;21757;43.610;1.440;2023-07-31T06:05:19;19.40;99.90
35635;DHT22;21757;43.610;1.440;2023-07-31T06:07:44;19.20;99.90
35635;DHT22;21757;43.610;1.440;2023-07-31T06:10:10;19.10;99.90
35635;DHT22;21757;43.610;1.440;2023-07-31T06:12:36;18.90;99.90
35635;DHT22;21757;43.610;1.440;2023-07-31T06:15:03;19.10;99.90
35635;DHT22;21757;43.610;1.440;2023-07-31T06:17:29;19.10;99.90
35635;DHT22;21757;43.610;1.440;2023-07-31T06:19:57;19.20;99.90
35635;DHT22;21757;43.610;1.440;2023-07-31T06:22:22;19.00;99.90
35635;DHT22;21757;43.610;1.440;2023-07-31T06:24:48;19.20;99.90
35635;DHT22;21757;43.610;1.440;2023-07-31T06:27:14;19.30;99.90
35635;DHT22;21757;43.610;1.440;2023-07-31T06:29:39;19.40;99.90
35635;DHT22;21757;43.610;1.440;2023-07-31T06:32:06;19.50;99.90
35635;DHT22;21757;43.610;1.440;2023-07-31T06:34:32;19.70;99.90
35635;DHT22;21757;43.610;1.440;2023-07-31T06:36:58;19.50;99.90
35635;DHT22;21757;43.610;1.440;2023-07-31T06:39:24;19.30;99.90
35635;DHT22;21757;43.610;1.440;2023-07-31T06:41:49;19.50;99.90
35635;DHT22;21757;43.610;1.440;2023-07-31T06:44:15;19.50;99.90
35635;DHT22;21757;43.610;1.440;2023-07-31T06:46:42;19.60;99.90
35635;DHT22;21757;43.610;1.440;2023-07-31T06:49:08;19.50;99.90
35635;DHT22;21757;43.610;1.440;2023-07-31T06:51:33;19.40;99.90
35635;DHT22;21757;43.610;1.440;2023-07-31T06:54:01;19.60;99.90
35635;DHT22;21757;43.610;1.440;2023-07-31T06:56:27;19.60;99.90
35635;DHT22;21757;43.610;1.440;2023-07-31T06:58:53;19.50;99.90
35635;DHT22;21757;43.610;1.440;2023-07-31T07:01:18;19.30;99.90
35635;DHT22;21757;43.610;1.440;2023-07-31T07:03:44;19.50;99.90
35635;DHT22;21757;43.610;1.440;2023-07-31T07:06:10;19.90;99.90
35635;DHT22;21757;43.610;1.440;2023-07-31T07:08:35;19.80;99.90
35635;DHT22;21757;43.610;1.440;2023-07-31T07:11:01;19.70;99.90
35635;DHT22;21757;43.610;1.440;2023-07-31T07:13:27;20.00;99.90
35635;DHT22;21757;43.610;1.440;2023-07-31T07:15:52;20.00;99.90
35635;DHT22;21757;43.610;1.440;2023-07-31T07:18:18;20.00;99.90
35635;DHT22;21757;43.610;1.440;2023-07-31T07:20:51;20.10;99.90
35635;DHT22;21757;43.610;1.440;2023-07-31T07:23:18;20.10;99.90
35635;DHT22;21757;43.610;1.440;2023-07-31T07:25:44;19.90;99.90
35635;DHT22;21757;43.610;1.440;2023-07-31T07:28:10;20.00;99.90
35635;DHT22;21757;43.610;1.440;2023-07-31T07:30:36;20.00;99.90
35635;DHT22;21757;43.610;1.440;2023-07-31T07:33:02;20.20;99.90
35635;DHT22;21757;43.610;1.440;2023-07-31T07:35:28;20.30;99.90
35635;DHT22;21757;43.610;1.440;2023-07-31T07:37:54;20.30;99.90
35635;DHT22;21757;43.610;1.440;2023-07-31T07:40:20;20.50;99.90
35635;DHT22;21757;43.610;1.440;2023-07-31T07:42:46;20.50;99.90
35635;DHT22;21757;43.610;1.440;2023-07-31T07:45:12;20.40;99.90
35635;DHT22;21757;43.610;1.440;2023-07-31T07:47:41;20.40;99.90
35635;DHT22;21757;43.610;1.440;2023-07-31T07:50:08;20.50;99.90
35635;DHT22;21757;43.610;1.440;2023-07-31T07:52:34;20.50;99.90
35635;DHT22;21757;43.610;1.440;2023-07-31T07:54:59;20.70;99.90
35635;DHT22;21757;43.610;1.440;2023-07-31T07:57:26;20.70;99.90
35635;DHT22;21757;43.610;1.440;2023-07-31T07:59:51;20.70;99.90
35635;DHT22;21757;43.610;1.440;2023-07-31T08:02:17;20.80;99.90
35635;DHT22;21757;43.610;1.440;2023-07-31T08:04:43;20.80;99.90
35635;DHT22;21757;43.610;1.440;2023-07-31T08:07:11;20.80;99.90
35635;DHT22;21757;43.610;1.440;2023-07-31T08:09:37;20.80;99.90
35635;DHT22;21757;43.610;1.440;2023-07-31T08:12:04;20.90;99.90
35635;DHT22;21757;43.610;1.440;2023-07-31T08:14:29;21.00;99.90
35635;DHT22;21757;43.610;1.440;2023-07-31T08:16:55;21.10;99.90
35635;DHT22;21757;43.610;1.440;2023-07-31T08:19:21;21.10;99.90
35635;DHT22;21757;43.610;1.440;2023-07-31T08:21:47;21.20;99.90
35635;DHT22;21757;43.610;1.440;2023-07-31T08:24:12;21.20;99.90
35635;DHT22;21757;43.610;1.440;2023-07-31T08:26:38;21.10;99.90
35635;DHT22;21757;43.610;1.440;2023-07-31T08:29:04;21.20;99.90
35635;DHT22;21757;43.610;1.440;2023-07-31T08:31:29;21.30;99.90
35635;DHT22;21757;43.610;1.440;2023-07-31T08:33:56;21.30;99.90
35635;DHT22;21757;43.610;1.440;2023-07-31T08:36:21;21.50;99.90
35635;DHT22;21757;43.610;1.440;2023-07-31T08:38:47;21.60;99.90
35635;DHT22;21757;43.610;1.440;2023-07-31T08:41:13;21.80;99.90
35635;DHT22;21757;43.610;1.440;2023-07-31T08:43:39;21.90;99.90
35635;DHT22;21757;43.610;1.440;2023-07-31T08:46:05;21.90;99.90
35635;DHT22;21757;43.610;1.440;2023-07-31T08:48:31;21.90;99.90
35635;DHT22;21757;43.610;1.440;2023-07-31T08:50:58;21.80;99.90
35635;DHT22;21757;43.610;1.440;2023-07-31T08:53:23;21.90;99.90
35635;DHT22;21757;43.610;1.440;2023-07-31T08:55:50;22.10;99.90
35635;DHT22;21757;43.610;1.440;2023-07-31T08:58:18;22.20;99.90
35635;DHT22;21757;43.610;1.440;2023-07-31T09:00:46;22.40;99.90
35635;DHT22;21757;43.610;1.440;2023-07-31T09:03:17;22.30;99.90
35635;DHT22;21757;43.610;1.440;2023-07-31T09:05:45;22.30;99.90
35635;DHT22;21757;43.610;1.440;2023-07-31T09:08:13;22.30;99.90
35635;DHT22;21757;43.610;1.440;2023-07-31T09:10:46;22.30;99.90
35635;DHT22;21757;43.610;1.440;2023-07-31T09:13:13;22.30;99.90
35635;DHT22;21757;43.610;1.440;2023-07-31T09:15:40;22.50;99.90
35635;DHT22;21757;43.610;1.440;2023-07-31T09:18:08;22.50;99.90
35635;DHT22;21757;43.610;1.440;2023-07-31T09:20:33;22.60;99.90
35635;DHT22;21757;43.610;1.440;2023-07-31T09:23:08;22.70;99.90
35635;DHT22;21757;43.610;1.440;2023-07-31T09:25:34;22.40;99.90
35635;DHT22;21757;43.610;1.440;2023-07-31T09:28:03;22.40;99.90
35635;DHT22;21757;43.610;1.440;2023-07-31T09:30:29;22.60;99.90
35635;DHT22;21757;43.610;1.440;2023-07-31T09:33:05;22.70;99.90
35635;DHT22;21757;43.610;1.440;2023-07-31T09:35:35;22.60;99.90
35635;DHT22;21757;43.610;1.440;2023-07-31T09:38:07;22.60;99.90
35635;DHT22;21757;43.610;1.440;2023-07-31T09:40:38;22.60;99.90
35635;DHT22;21757;43.610;1.440;2023-07-31T09:43:09;22.50;99.90
35635;DHT22;21757;43.610;1.440;2023-07-31T09:45:36;22.50;99.90
35635;DHT22;21757;43.610;1.440;2023-07-31T09:48:03;22.80;99.90
35635;DHT22;21757;43.610;1.440;2023-07-31T09:50:31;23.00;99.90
35635;DHT22;21757;43.610;1.440;2023-07-31T09:52:57;23.00;99.90
35635;DHT22;21757;43.610;1.440;2023-07-31T09:55:24;23.00;99.90
35635;DHT22;21757;43.610;1.440;2023-07-31T09:57:49;23.10;99.90
35635;DHT22;21757;43.610;1.440;2023-07-31T10:00:17;23.10;99.90
35635;DHT22;21757;43.610;1.440;2023-07-31T10:02:46;23.10;99.90
35635;DHT22;21757;43.610;1.440;2023-07-31T10:05:16;23.20;99.90
35635;DHT22;21757;43.610;1.440;2023-07-31T10:07:45;23.10;99.90
35635;DHT22;21757;43.610;1.440;2023-07-31T10:10:15;23.10;99.90
35635;DHT22;21757;43.610;1.440;2023-07-31T10:12:42;23.10;99.90
35635;DHT22;21757;43.610;1.440;2023-07-31T10:15:09;23.30;99.90
35635;DHT22;21757;43.610;1.440;2023-07-31T10:17:35;23.70;99.90
35635;DHT22;21757;43.610;1.440;2023-07-31T10:20:02;23.50;99.90
35635;DHT22;21757;43.610;1.440;2023-07-31T10:22:31;23.60;99.90
35635;DHT22;21757;43.610;1.440;2023-07-31T10:24:59;23.40;99.90
35635;DHT22;21757;43.610;1.440;2023-07-31T10:27:26;23.40;99.90
35635;DHT22;21757;43.610;1.440;2023-07-31T10:29:56;23.60;99.90
35635;DHT22;21757;43.610;1.440;2023-07-31T10:32:23;23.70;99.90
35635;DHT22;21757;43.610;1.440;2023-07-31T10:34:50;23.70;99.90
35635;DHT22;21757;43.610;1.440;2023-07-31T10:40:24;23.50;99.90
35635;DHT22;21757;43.610;1.440;2023-07-31T10:42:52;23.70;99.90
35635;DHT22;21757;43.610;1.440;2023-07-31T10:45:33;23.50;99.90
35635;DHT22;21757;43.610;1.440;2023-07-31T10:48:03;23.60;99.90
35635;DHT22;21757;43.610;1.440;2023-07-31T10:50:30;23.80;99.90
35635;DHT22;21757;43.610;1.440;2023-07-31T10:52:58;24.00;99.90
35635;DHT22;21757;43.610;1.440;2023-07-31T10:57:50;23.90;99.90
35635;DHT22;21757;43.610;1.440;2023-07-31T11:03:18;24.30;99.90
35635;DHT22;21757;43.610;1.440;2023-07-31T11:08:26;24.30;99.90
35635;DHT22;21757;43.610;1.440;2023-07-31T11:13:34;24.50;99.90
35635;DHT22;21757;43.610;1.440;2023-07-31T11:16:04;24.30;99.90
35635;DHT22;21757;43.610;1.440;2023-07-31T11:18:30;24.20;99.90
35635;DHT22;21757;43.610;1.440;2023-07-31T11:20:55;24.20;99.90
35635;DHT22;21757;43.610;1.440;2023-07-31T11:23:22;24.40;99.90
35635;DHT22;21757;43.610;1.440;2023-07-31T11:25:48;24.60;99.90
35635;DHT22;21757;43.610;1.440;2023-07-31T11:28:16;24.70;99.90
35635;DHT22;21757;43.610;1.440;2023-07-31T11:30:43;24.70;99.90
35635;DHT22;21757;43.610;1.440;2023-07-31T11:33:10;24.40;99.90
35635;DHT22;21757;43.610;1.440;2023-07-31T11:35:46;24.30;99.90
35635;DHT22;21757;43.610;1.440;2023-07-31T11:38:20;24.60;99.90
35635;DHT22;21757;43.610;1.440;2023-07-31T11:40:48;24.80;99.90
35635;DHT22;21757;43.610;1.440;2023-07-31T11:43:13;24.80;99.90
35635;DHT22;21757;43.610;1.440;2023-07-31T11:45:46;24.70;99.90
35635;DHT22;21757;43.610;1.440;2023-07-31T11:48:25;24.70;99.90
35635;DHT22;21757;43.610;1.440;2023-07-31T11:50:53;24.70;99.90
35635;DHT22;21757;43.610;1.440;2023-07-31T11:55:52;25.20;99.90
35635;DHT22;21757;43.610;1.440;2023-07-31T11:58:20;25.30;99.90
35635;DHT22;21757;43.610;1.440;2023-07-31T12:00:46;25.10;99.90
35635;DHT22;21757;43.610;1.440;2023-07-31T12:03:12;25.00;99.90
35635;DHT22;21757;43.610;1.440;2023-07-31T12:05:38;24.90;99.90
35635;DHT22;21757;43.610;1.440;2023-07-31T12:08:10;25.20;99.90
35635;DHT22;21757;43.610;1.440;2023-07-31T12:10:38;25.40;99.90
35635;DHT22;21757;43.610;1.440;2023-07-31T12:13:11;25.10;99.90
35635;DHT22;21757;43.610;1.440;2023-07-31T12:15:42;25.20;99.90
35635;DHT22;21757;43.610;1.440;2023-07-31T12:18:14;25.20;99.90
35635;DHT22;21757;43.610;1.440;2023-07-31T12:20:45;25.20;99.90
35635;DHT22;21757;43.610;1.440;2023-07-31T12:23:18;25.20;99.90
35635;DHT22;21757;43.610;1.440;2023-07-31T12:25:44;25.40;99.90
35635;DHT22;21757;43.610;1.440;2023-07-31T12:28:10;25.50;99.90
35635;DHT22;21757;43.610;1.440;2023-07-31T12:30:40;25.50;99.90
35635;DHT22;21757;43.610;1.440;2023-07-31T12:33:07;25.50;99.90
35635;DHT22;21757;43.610;1.440;2023-07-31T12:35:42;25.70;99.90
35635;DHT22;21757;43.610;1.440;2023-07-31T12:38:08;25.60;99.90
35635;DHT22;21757;43.610;1.440;2023-07-31T12:40:37;25.70;99.90
35635;DHT22;21757;43.610;1.440;2023-07-31T12:43:03;25.90;99.90
35635;DHT22;21757;43.610;1.440;2023-07-31T12:45:31;26.10;99.90
35635;DHT22;21757;43.610;1.440;2023-07-31T12:48:01;26.00;99.90
35635;DHT22;21757;43.610;1.440;2023-07-31T12:50:27;26.10;99.90
35635;DHT22;21757;43.610;1.440;2023-07-31T12:52:53;26.00;99.90
35635;DHT22;21757;43.610;1.440;2023-07-31T12:55:21;25.90;99.90
35635;DHT22;21757;43.610;1.440;2023-07-31T12:57:47;26.10;99.90
35635;DHT22;21757;43.610;1.440;2023-07-31T13:00:13;26.20;99.90
35635;DHT22;21757;43.610;1.440;2023-07-31T13:02:39;26.20;99.90
35635;DHT22;21757;43.610;1.440;2023-07-31T13:05:04;26.30;99.90
35635;DHT22;21757;43.610;1.440;2023-07-31T13:07:30;26.20;99.90
35635;DHT22;21757;43.610;1.440;2023-07-31T13:09:56;26.10;99.90
35635;DHT22;21757;43.610;1.440;2023-07-31T13:12:22;26.20;99.90
35635;DHT22;21757;43.610;1.440;2023-07-31T13:14:47;26.70;99.90
35635;DHT22;21757;43.610;1.440;2023-07-31T13:17:13;26.70;99.90
35635;DHT22;21757;43.610;1.440;2023-07-31T13:19:39;26.80;99.90
35635;DHT22;21757;43.610;1.440;2023-07-31T13:22:05;26.70;99.90
35635;DHT22;21757;43.610;1.440;2023-07-31T13:24:30;26.60;99.90
35635;DHT22;21757;43.610;1.440;2023-07-31T13:26:57;26.40;99.90
35635;DHT22;21757;43.610;1.440;2023-07-31T13:29:22;26.40;99.90
35635;DHT22;21757;43.610;1.440;2023-07-31T13:31:49;26.40;99.90
35635;DHT22;21757;43.610;1.440;2023-07-31T13:34:14;26.50;99.90
35635;DHT22;21757;43.610;1.440;2023-07-31T13:36:40;26.90;99.90
35635;DHT22;21757;43.610;1.440;2023-07-31T13:39:07;27.00;99.90
35635;DHT22;21757;43.610;1.440;2023-07-31T13:41:33;26.90;99.90
35635;DHT22;21757;43.610;1.440;2023-07-31T13:43:58;26.70;99.90
35635;DHT22;21757;43.610;1.440;2023-07-31T13:46:24;26.90;99.90
35635;DHT22;21757;43.610;1.440;2023-07-31T13:48:51;26.90;99.90
35635;DHT22;21757;43.610;1.440;2023-07-31T13:51:16;27.00;99.90
35635;DHT22;21757;43.610;1.440;2023-07-31T13:53:42;27.30;99.90
35635;DHT22;21757;43.610;1.440;2023-07-31T13:56:08;27.50;99.90
35635;DHT22;21757;43.610;1.440;2023-07-31T13:58:33;27.60;99.90
35635;DHT22;21757;43.610;1.440;2023-07-31T14:00:59;27.70;99.90
35635;DHT22;21757;43.610;1.440;2023-07-31T14:03:25;27.70;99.90
35635;DHT22;21757;43.610;1.440;2023-07-31T14:05:52;27.60;99.90
35635;DHT22;21757;43.610;1.440;2023-07-31T14:08:17;27.50;99.90
35635;DHT22;21757;43.610;1.440;2023-07-31T14:10:43;27.60;99.90
35635;DHT22;21757;43.610;1.440;2023-07-31T14:13:09;27.70;99.90
35635;DHT22;21757;43.610;1.440;2023-07-31T14:15:34;27.60;99.90
35635;DHT22;21757;43.610;1.440;2023-07-31T14:18:01;27.80;99.90
35635;DHT22;21757;43.610;1.440;2023-07-31T14:20:28;27.90;99.90
35635;DHT22;21757;43.610;1.440;2023-07-31T14:22:54;28.00;99.90
35635;DHT22;21757;43.610;1.440;2023-07-31T14:25:20;28.10;99.90
35635;DHT22;21757;43.610;1.440;2023-07-31T14:27:46;27.80;99.90
35635;DHT22;21757;43.610;1.440;2023-07-31T14:30:11;28.00;99.90
35635;DHT22;21757;43.610;1.440;2023-07-31T14:32:37;28.20;99.90
35635;DHT22;21757;43.610;1.440;2023-07-31T14:35:03;28.30;99.90
35635;DHT22;21757;43.610;1.440;2023-07-31T14:40:05;28.00;99.90
35635;DHT22;21757;43.610;1.440;2023-07-31T14:42:31;27.90;99.90
35635;DHT22;21757;43.610;1.440;2023-07-31T14:44:57;28.10;99.90
35635;DHT22;21757;43.610;1.440;2023-07-31T14:47:22;28.20;99.90
35635;DHT22;21757;43.610;1.440;2023-07-31T14:49:48;28.20;99.90
35635;DHT22;21757;43.610;1.440;2023-07-31T14:52:14;28.30;99.90
35635;DHT22;21757;43.610;1.440;2023-07-31T14:54:40;28.30;99.90
35635;DHT22;21757;43.610;1.440;2023-07-31T14:57:05;28.40;99.90
35635;DHT22;21757;43.610;1.440;2023-07-31T14:59:31;28.40;99.90
35635;DHT22;21757;43.610;1.440;2023-07-31T15:01:57;28.30;99.90
35635;DHT22;21757;43.610;1.440;2023-07-31T15:04:22;28.00;99.90
35635;DHT22;21757;43.610;1.440;2023-07-31T15:06:49;28.20;99.90
35635;DHT22;21757;43.610;1.440;2023-07-31T15:09:15;27.70;99.90
35635;DHT22;21757;43.610;1.440;2023-07-31T15:11:41;27.50;99.90
35635;DHT22;21757;43.610;1.440;2023-07-31T15:14:07;27.40;99.90
35635;DHT22;21757;43.610;1.440;2023-07-31T15:16:32;27.30;99.90
35635;DHT22;21757;43.610;1.440;2023-07-31T15:18:58;27.40;99.90
35635;DHT22;21757;43.610;1.440;2023-07-31T15:21:24;27.50;99.90
35635;DHT22;21757;43.610;1.440;2023-07-31T15:23:49;27.60;99.90
35635;DHT22;21757;43.610;1.440;2023-07-31T15:26:15;27.90;99.90
35635;DHT22;21757;43.610;1.440;2023-07-31T15:28:41;27.70;99.90
35635;DHT22;21757;43.610;1.440;2023-07-31T15:31:06;27.60;99.90
35635;DHT22;21757;43.610;1.440;2023-07-31T15:33:32;27.70;99.90
35635;DHT22;21757;43.610;1.440;2023-07-31T15:35:58;27.60;99.90
35635;DHT22;21757;43.610;1.440;2023-07-31T15:38:24;27.50;99.90
35635;DHT22;21757;43.610;1.440;2023-07-31T15:40:49;27.50;99.90
35635;DHT22;21757;43.610;1.440;2023-07-31T15:43:16;27.50;99.90
35635;DHT22;21757;43.610;1.440;2023-07-31T15:45:42;27.50;99.90
35635;DHT22;21757;43.610;1.440;2023-07-31T15:48:08;27.60;99.90
35635;DHT22;21757;43.610;1.440;2023-07-31T15:50:34;27.70;99.90
35635;DHT22;21757;43.610;1.440;2023-07-31T15:52:59;27.80;99.90
35635;DHT22;21757;43.610;1.440;2023-07-31T15:55:25;27.80;99.90